createdAt,value
2018-03-14T00:01:13.953Z,30.20
2018-03-14T00:03:42.214Z,31.53
2018-03-14T00:06:09.684Z,32.17
2018-03-14T00:08:37.952Z,35.60
2018-03-14T00:11:05.414Z,32.43
2018-03-14T00:13:32.879Z,33.77
2018-03-14T00:16:01.133Z,41.53
2018-03-14T00:18:28.599Z,40.80
2018-03-14T00:20:56.105Z,35.53
2018-03-14T00:23:23.566Z,35.80
2018-03-14T00:25:51.071Z,35.20
2018-03-14T00:28:19.326Z,41.60
2018-03-14T00:30:46.798Z,44.90
2018-03-14T00:33:14.263Z,36.80
2018-03-14T00:35:42.515Z,42.27
2018-03-14T00:38:09.997Z,37.23
2018-03-14T00:40:38.227Z,37.33
2018-03-14T00:43:05.810Z,48.03
2018-03-14T00:45:33.278Z,39.60
2018-03-14T00:48:00.751Z,37.53
2018-03-14T00:50:29.018Z,43.53
2018-03-14T00:52:57.246Z,42.27
2018-03-14T00:55:24.719Z,43.93
2018-03-14T00:57:52.373Z,39.60
2018-03-14T01:00:19.849Z,42.57
2018-03-14T01:02:47.323Z,43.00
2018-03-14T01:05:15.583Z,43.10
2018-03-14T01:07:43.881Z,40.80
2018-03-14T01:10:12.119Z,46.17
2018-03-14T01:12:39.612Z,47.97
2018-03-14T01:15:07.843Z,46.47
2018-03-14T01:17:35.317Z,43.10
2018-03-14T01:20:02.806Z,50.80
2018-03-14T01:22:31.039Z,46.17
2018-03-14T01:24:58.506Z,47.90
2018-03-14T01:27:25.991Z,45.33
2018-03-14T01:29:54.231Z,45.13
2018-03-14T01:32:21.722Z,49.17
2018-03-14T01:34:49.962Z,49.57
2018-03-14T01:37:17.506Z,43.17
2018-03-14T01:39:45.001Z,49.20
2018-03-14T01:42:13.254Z,54.23
2018-03-14T01:44:40.723Z,51.77
2018-03-14T01:47:08.218Z,52.03
2018-03-14T01:49:35.694Z,50.63
2018-03-14T01:52:03.199Z,53.57
2018-03-14T01:54:30.702Z,47.33
2018-03-14T01:56:58.169Z,46.20
2018-03-14T01:59:25.663Z,49.50
2018-03-14T02:01:53.130Z,44.10
2018-03-14T02:04:20.624Z,56.50
2018-03-14T02:06:48.107Z,51.80
2018-03-14T02:09:15.594Z,55.33
2018-03-14T02:11:44.302Z,56.80
2018-03-14T02:14:12.560Z,60.10
2018-03-14T02:16:40.790Z,55.60
2018-03-14T02:19:08.261Z,52.00
2018-03-14T02:21:35.795Z,61.97
2018-03-14T02:24:03.280Z,57.67
2018-03-14T02:26:30.769Z,66.20
2018-03-14T02:28:59.002Z,65.70
2018-03-14T02:31:26.467Z,56.27
2018-03-14T02:33:54.047Z,66.53
2018-03-14T02:36:34.124Z,66.17
2018-03-14T02:39:02.428Z,65.30
2018-03-14T02:41:29.898Z,60.10
2018-03-14T02:43:57.363Z,66.13
2018-03-14T02:46:24.858Z,63.77
2018-03-14T02:48:53.097Z,59.33
2018-03-14T02:51:20.587Z,63.57
2018-03-14T02:53:49.579Z,68.07
2018-03-14T02:56:17.802Z,65.03
2018-03-14T02:58:45.303Z,66.63
2018-03-14T03:01:12.786Z,76.43
2018-03-14T03:03:40.379Z,74.80
2018-03-14T03:06:07.860Z,61.93
2018-03-14T03:08:35.331Z,65.47
2018-03-14T03:11:02.799Z,66.10
2018-03-14T03:13:31.044Z,64.53
2018-03-14T03:15:58.503Z,77.73
2018-03-14T03:18:25.959Z,67.97
2018-03-14T03:20:53.437Z,72.80
2018-03-14T03:23:20.912Z,67.53
2018-03-14T03:25:49.163Z,67.73
2018-03-14T03:28:19.130Z,69.27
2018-03-14T03:30:46.604Z,73.80
2018-03-14T03:33:14.086Z,77.60
2018-03-14T03:35:41.558Z,64.60
2018-03-14T03:38:09.011Z,78.87
2018-03-14T03:40:37.309Z,76.23
2018-03-14T03:43:05.529Z,76.80
2018-03-14T03:45:33.003Z,78.90
2018-03-14T03:48:00.502Z,76.33
2018-03-14T03:50:27.963Z,77.50
2018-03-14T03:52:55.458Z,69.70
2018-03-14T03:55:22.953Z,75.03
2018-03-14T03:57:50.412Z,74.83
2018-03-14T04:00:18.646Z,75.87
2018-03-14T04:02:46.137Z,77.37
2018-03-14T04:05:14.358Z,76.93
2018-03-14T04:07:41.855Z,78.30
2018-03-14T04:10:09.347Z,82.60
2018-03-14T04:12:36.846Z,83.30
2018-03-14T04:15:04.314Z,90.20
2018-03-14T04:17:31.781Z,76.70
2018-03-14T04:19:59.284Z,76.67
2018-03-14T04:22:26.759Z,81.00
2018-03-14T04:24:54.214Z,85.07
2018-03-14T04:27:21.714Z,90.80
2018-03-14T04:29:49.178Z,91.17
2018-03-14T04:32:17.448Z,95.90
2018-03-14T04:34:45.016Z,98.80
2018-03-14T04:37:13.252Z,96.83
2018-03-14T04:39:40.722Z,86.27
2018-03-14T04:42:08.198Z,82.43
2018-03-14T04:44:36.430Z,98.97
2018-03-14T04:47:03.923Z,95.50
2018-03-14T04:49:31.402Z,102.27
2018-03-14T04:51:59.669Z,114.30
2018-03-14T04:54:27.895Z,105.77
2018-03-14T04:56:55.364Z,106.27
2018-03-14T04:59:22.858Z,111.60
2018-03-14T05:01:50.326Z,108.63
2018-03-14T05:04:18.559Z,111.23
2018-03-14T05:06:46.050Z,127.23
2018-03-14T05:09:14.285Z,123.63
2018-03-14T05:11:41.762Z,123.30
2018-03-14T05:14:10.035Z,124.57
2018-03-14T05:16:37.479Z,131.97
2018-03-14T05:19:04.947Z,115.27
2018-03-14T05:21:32.434Z,129.70
2018-03-14T05:23:59.902Z,137.40
2018-03-14T05:26:27.412Z,145.30
2018-03-14T05:28:55.646Z,131.43
2018-03-14T05:31:23.118Z,151.20
2018-03-14T05:33:50.605Z,151.23
2018-03-14T05:36:18.081Z,168.67
2018-03-14T05:38:46.401Z,145.77
2018-03-14T05:41:13.907Z,146.87
2018-03-14T05:43:42.153Z,164.67
2018-03-14T05:46:09.798Z,170.20
2018-03-14T05:48:37.263Z,168.30
2018-03-14T05:51:04.739Z,150.47
2018-03-14T05:53:32.206Z,152.43
2018-03-14T05:55:59.675Z,181.20
2018-03-14T05:58:27.933Z,178.70
2018-03-14T06:00:55.398Z,141.07
2018-03-14T06:03:22.862Z,122.10
2018-03-14T06:05:51.122Z,118.40
2018-03-14T06:08:18.604Z,207.67
2018-03-14T06:10:46.831Z,629.40
2018-03-14T06:13:14.323Z,123.87
2018-03-14T06:15:42.554Z,135.37
2018-03-14T06:18:10.036Z,106.87
2018-03-14T06:20:37.519Z,159.70
2018-03-14T06:23:05.755Z,124.80
2018-03-14T06:25:33.239Z,115.80
2018-03-14T06:28:01.486Z,108.37
2018-03-14T06:30:28.958Z,100.37
2018-03-14T06:32:56.517Z,95.60
2018-03-14T06:35:23.985Z,91.03
2018-03-14T06:37:51.447Z,119.97
2018-03-14T06:40:19.698Z,152.00
2018-03-14T06:42:47.174Z,159.03
2018-03-14T06:45:15.439Z,135.40
2018-03-14T06:47:42.913Z,154.30
2018-03-14T06:50:11.150Z,151.23
2018-03-14T06:52:38.634Z,178.90
2018-03-14T06:55:06.874Z,136.30
2018-03-14T06:57:34.360Z,202.20
2018-03-14T07:00:13.654Z,135.30
2018-03-14T07:02:47.959Z,151.30
2018-03-14T07:05:27.387Z,147.90
2018-03-14T07:07:54.863Z,143.83
2018-03-14T07:10:22.336Z,131.60
2018-03-14T07:12:49.822Z,128.73
2018-03-14T07:15:18.055Z,110.13
2018-03-14T07:17:45.541Z,96.33
2018-03-14T07:20:13.026Z,97.10
2018-03-14T07:22:41.647Z,106.50
2018-03-14T07:25:09.153Z,109.17
2018-03-14T07:27:36.709Z,96.43
2018-03-14T07:30:04.178Z,103.77
2018-03-14T07:32:32.426Z,95.50
2018-03-14T07:35:01.402Z,96.13
2018-03-14T07:37:28.866Z,107.87
2018-03-14T07:39:56.354Z,95.13
2018-03-14T07:42:24.584Z,101.77
2018-03-14T07:44:52.063Z,94.50
2018-03-14T07:47:19.530Z,92.53
2018-03-14T07:49:47.602Z,91.33
2018-03-14T07:52:15.110Z,89.87
2018-03-14T07:54:42.574Z,85.07
2018-03-14T07:57:10.051Z,86.80
2018-03-14T07:59:37.531Z,75.67
2018-03-14T08:02:05.008Z,76.13
2018-03-14T08:04:33.251Z,66.40
2018-03-14T08:07:00.820Z,72.83
2018-03-14T08:09:28.282Z,72.20
2018-03-14T08:11:56.530Z,73.17
2018-03-14T08:14:24.011Z,67.50
2018-03-14T08:16:51.503Z,69.20
2018-03-14T08:19:18.976Z,62.23
2018-03-14T08:21:46.440Z,62.80
2018-03-14T08:24:13.935Z,62.60
2018-03-14T08:26:42.159Z,62.83
2018-03-14T08:29:09.631Z,67.17
2018-03-14T08:31:37.109Z,64.73
2018-03-14T08:34:04.567Z,67.07
2018-03-14T08:36:33.527Z,65.93
2018-03-14T08:39:01.018Z,66.17
2018-03-14T08:41:28.548Z,61.43
2018-03-14T08:43:56.782Z,69.47
2018-03-14T08:46:25.023Z,60.97
2018-03-14T08:48:52.474Z,61.47
2018-03-14T08:51:19.968Z,57.37
2018-03-14T08:53:48.178Z,56.03
2018-03-14T08:56:15.657Z,57.33
2018-03-14T08:58:43.141Z,57.37
2018-03-14T09:01:10.603Z,54.80
2018-03-14T09:03:38.859Z,56.57
2018-03-14T09:06:06.333Z,52.27
2018-03-14T09:08:34.591Z,52.43
2018-03-14T09:11:02.070Z,51.93
2018-03-14T09:13:30.307Z,49.53
2018-03-14T09:15:57.767Z,49.27
2018-03-14T09:18:25.252Z,51.63
2018-03-14T09:20:53.503Z,38.90
2018-03-14T09:23:20.970Z,41.63
2018-03-14T09:25:48.454Z,44.00
2018-03-14T09:28:16.702Z,44.07
2018-03-14T09:30:44.170Z,47.30
2018-03-14T09:33:12.427Z,37.17
2018-03-14T09:35:39.894Z,31.40
2018-03-14T09:38:07.364Z,33.47
2018-03-14T09:40:34.902Z,32.33
2018-03-14T09:43:02.382Z,30.60
2018-03-14T09:45:30.598Z,30.83
2018-03-14T09:47:58.078Z,29.87
2018-03-14T09:50:25.551Z,33.67
2018-03-14T09:52:53.043Z,29.67
2018-03-14T09:55:20.523Z,28.33
2018-03-14T09:57:47.985Z,27.13
2018-03-14T10:00:15.467Z,28.47
2018-03-14T10:02:42.929Z,27.27
2018-03-14T10:05:10.422Z,28.90
2018-03-14T10:07:38.662Z,28.03
2018-03-14T10:10:06.126Z,28.67
2018-03-14T10:12:33.667Z,29.17
2018-03-14T10:15:01.132Z,26.60
2018-03-14T10:17:28.596Z,27.00
2018-03-14T10:19:56.158Z,28.57
2018-03-14T10:22:24.393Z,27.67
2018-03-14T10:24:51.857Z,28.67
2018-03-14T10:27:19.334Z,29.13
2018-03-14T10:29:46.815Z,30.43
2018-03-14T10:32:15.071Z,28.77
2018-03-14T10:34:42.538Z,26.90
2018-03-14T10:37:10.788Z,25.40
2018-03-14T10:39:38.287Z,26.47
2018-03-14T10:42:05.754Z,29.77
2018-03-14T10:44:33.228Z,28.60
2018-03-14T10:47:00.708Z,25.00
2018-03-14T10:49:28.263Z,25.10
2018-03-14T10:51:55.728Z,24.23
2018-03-14T10:54:23.194Z,24.87
2018-03-14T10:56:50.663Z,21.77
2018-03-14T10:59:18.146Z,23.37
2018-03-14T11:01:47.529Z,27.10
2018-03-14T11:04:15.879Z,22.47
2018-03-14T11:06:43.399Z,25.40
2018-03-14T11:09:10.924Z,23.27
2018-03-14T11:11:39.158Z,22.27
2018-03-14T11:14:06.651Z,23.70
2018-03-14T11:16:34.927Z,24.03
2018-03-14T11:19:02.419Z,23.67
2018-03-14T11:21:29.949Z,19.90
2018-03-14T11:23:57.354Z,25.07
2018-03-14T11:26:24.840Z,25.37
2018-03-14T11:28:52.310Z,28.10
2018-03-14T11:31:20.575Z,27.73
2018-03-14T11:33:48.080Z,23.43
2018-03-14T11:36:15.545Z,22.07
2018-03-14T11:38:43.031Z,20.27
2018-03-14T11:41:10.495Z,22.13
2018-03-14T11:43:38.724Z,17.87
2018-03-14T11:46:06.201Z,21.03
2018-03-14T11:48:33.714Z,22.30
2018-03-14T11:51:01.139Z,15.70
2018-03-14T11:53:28.625Z,17.03
2018-03-14T11:55:56.097Z,20.07
2018-03-14T11:58:23.610Z,18.43
2018-03-14T12:00:51.082Z,16.13
2018-03-14T12:03:18.550Z,18.80
2018-03-14T12:05:46.794Z,15.20
2018-03-14T12:08:14.275Z,13.40
2018-03-14T12:10:42.534Z,17.23
2018-03-14T12:13:10.002Z,16.97
2018-03-14T12:15:37.462Z,17.20
2018-03-14T12:18:05.716Z,18.80
2018-03-14T12:20:33.182Z,14.53
2018-03-14T12:23:01.442Z,16.50
2018-03-14T12:25:28.913Z,14.13
2018-03-14T12:27:56.376Z,21.80
2018-03-14T12:30:24.631Z,14.97
2018-03-14T12:32:52.124Z,13.50
2018-03-14T12:35:20.359Z,16.47
2018-03-14T12:37:47.835Z,15.10
2018-03-14T12:40:15.309Z,14.27
2018-03-14T12:42:43.542Z,13.60
2018-03-14T12:45:11.028Z,13.40
2018-03-14T12:47:39.249Z,14.37
2018-03-14T12:50:06.717Z,14.03
2018-03-14T12:52:34.195Z,15.93
2018-03-14T12:55:01.674Z,15.83
2018-03-14T12:57:29.125Z,14.13
2018-03-14T12:59:57.369Z,13.00
2018-03-14T13:02:24.894Z,13.80
2018-03-14T13:04:52.347Z,13.47
2018-03-14T13:07:19.811Z,12.77
2018-03-14T13:09:47.275Z,13.97
2018-03-14T13:12:14.759Z,13.80
2018-03-14T13:14:42.229Z,11.90
2018-03-14T13:17:10.541Z,11.90
2018-03-14T13:19:38.022Z,10.43
2018-03-14T13:22:05.486Z,12.20
2018-03-14T13:24:32.982Z,11.87
2018-03-14T13:27:00.437Z,13.10
2018-03-14T13:29:27.890Z,11.27
2018-03-14T13:31:55.378Z,14.00
2018-03-14T13:34:23.606Z,13.10
2018-03-14T13:36:51.083Z,12.03
2018-03-14T13:39:18.558Z,16.33
2018-03-14T13:41:46.789Z,12.10
2018-03-14T13:44:14.275Z,10.57
2018-03-14T13:46:41.730Z,11.80
2018-03-14T13:49:09.190Z,12.13
2018-03-14T13:51:36.667Z,13.40
2018-03-14T13:54:04.206Z,14.70
2018-03-14T13:56:32.448Z,13.37
2018-03-14T13:58:59.983Z,13.40
2018-03-14T14:01:28.170Z,14.93
2018-03-14T14:03:55.636Z,12.17
2018-03-14T14:06:23.138Z,17.30
2018-03-14T14:08:51.370Z,13.73
2018-03-14T14:11:18.868Z,15.27
2018-03-14T14:13:47.103Z,18.13
2018-03-14T14:16:14.559Z,14.33
2018-03-14T14:18:42.038Z,17.33
2018-03-14T14:21:09.503Z,14.50
2018-03-14T14:23:37.743Z,18.10
2018-03-14T14:26:05.211Z,11.60
2018-03-14T14:28:32.677Z,15.27
2018-03-14T14:31:00.177Z,15.23
2018-03-14T14:33:27.656Z,14.00
2018-03-14T14:35:55.131Z,11.30
2018-03-14T14:38:22.611Z,20.43
2018-03-14T14:40:50.848Z,14.43
2018-03-14T14:43:18.307Z,13.87
2018-03-14T14:45:45.779Z,16.37
2018-03-14T14:48:13.267Z,11.83
2018-03-14T14:50:41.501Z,15.20
2018-03-14T14:53:08.969Z,14.53
2018-03-14T14:55:36.439Z,16.70
2018-03-14T14:58:03.930Z,14.60
2018-03-14T15:00:31.404Z,12.60
2018-03-14T15:02:58.890Z,11.40
2018-03-14T15:05:26.386Z,16.83
2018-03-14T15:07:54.611Z,14.07
2018-03-14T15:10:22.090Z,15.90
2018-03-14T15:12:49.558Z,11.87
2018-03-14T15:15:17.122Z,14.33
2018-03-14T15:17:44.611Z,16.27
2018-03-14T15:20:12.079Z,10.27
2018-03-14T15:22:39.580Z,10.80
2018-03-14T15:25:07.072Z,12.83
2018-03-14T15:27:34.529Z,8.80
2018-03-14T15:30:02.000Z,11.00
2018-03-14T15:32:29.478Z,12.30
2018-03-14T15:34:56.939Z,11.23
2018-03-14T15:37:24.423Z,11.63
2018-03-14T15:39:51.979Z,12.40
2018-03-14T15:42:19.443Z,14.70
2018-03-14T15:44:47.040Z,13.87
2018-03-14T15:47:14.467Z,15.03
2018-03-14T15:49:42.697Z,14.07
2018-03-14T15:52:10.189Z,16.77
2018-03-14T15:54:37.645Z,13.37
2018-03-14T15:57:05.304Z,17.33
2018-03-14T15:59:32.740Z,13.30
2018-03-14T16:02:00.208Z,17.67
2018-03-14T16:04:29.205Z,15.70
2018-03-14T16:06:56.672Z,19.13
2018-03-14T16:09:24.142Z,16.07
2018-03-14T16:11:52.409Z,15.07
2018-03-14T16:14:20.655Z,22.50
2018-03-14T16:16:48.160Z,15.57
2018-03-14T16:19:15.629Z,17.43
2018-03-14T16:21:43.151Z,16.53
2018-03-14T16:24:11.425Z,14.60
2018-03-14T16:26:39.852Z,12.97
2018-03-14T16:29:07.173Z,17.13
2018-03-14T16:31:35.444Z,12.97
2018-03-14T16:34:04.883Z,12.33
2018-03-14T16:36:32.861Z,17.33
2018-03-14T16:39:00.335Z,12.57
2018-03-14T16:41:28.371Z,16.03
2018-03-14T16:43:55.862Z,13.17
2018-03-14T16:46:23.334Z,17.40
2018-03-14T16:48:50.812Z,13.10
2018-03-14T16:51:19.063Z,13.17
2018-03-14T16:53:46.523Z,12.03
2018-03-14T16:56:13.991Z,15.60
2018-03-14T16:58:42.255Z,12.90
2018-03-14T17:01:10.408Z,14.33
2018-03-14T17:03:38.471Z,13.40
2018-03-14T17:06:05.936Z,10.80
2018-03-14T17:08:33.415Z,13.23
2018-03-14T17:11:00.918Z,12.00
2018-03-14T17:13:29.215Z,16.17
2018-03-14T17:15:56.674Z,10.80
2018-03-14T17:18:24.163Z,11.60
2018-03-14T17:20:51.643Z,16.70
2018-03-14T17:23:19.892Z,13.20
2018-03-14T17:25:47.356Z,18.57
2018-03-14T17:28:15.616Z,17.00
2018-03-14T17:30:43.067Z,14.60
2018-03-14T17:33:10.531Z,16.30
2018-03-14T17:35:38.047Z,13.67
2018-03-14T17:38:05.511Z,13.70
2018-03-14T17:40:32.983Z,15.70
2018-03-14T17:43:00.450Z,16.53
2018-03-14T17:45:27.920Z,16.23
2018-03-14T17:47:55.397Z,11.47
2018-03-14T17:50:23.698Z,15.47
2018-03-14T17:52:51.144Z,13.10
2018-03-14T17:55:18.618Z,12.73
2018-03-14T17:57:46.092Z,19.07
2018-03-14T18:00:13.566Z,18.07
2018-03-14T18:02:41.086Z,13.77
2018-03-14T18:05:08.556Z,11.40
2018-03-14T18:07:37.205Z,15.13
2018-03-14T18:10:05.443Z,12.57
2018-03-14T18:12:32.911Z,13.30
2018-03-14T18:15:00.383Z,13.20
2018-03-14T18:17:28.659Z,14.87
2018-03-14T18:19:56.887Z,15.83
2018-03-14T18:22:24.347Z,15.90
2018-03-14T18:24:51.832Z,12.93
2018-03-14T18:27:19.283Z,13.70
2018-03-14T18:29:46.775Z,15.23
2018-03-14T18:32:14.227Z,17.40
2018-03-14T18:34:41.684Z,15.23
2018-03-14T18:37:09.263Z,15.90
2018-03-14T18:39:36.715Z,11.50
2018-03-14T18:42:04.181Z,10.47
2018-03-14T18:44:31.683Z,12.80
2018-03-14T18:46:59.322Z,12.13
2018-03-14T18:49:26.841Z,13.40
2018-03-14T18:51:54.304Z,13.30
2018-03-14T18:54:21.767Z,10.40
2018-03-14T18:56:49.312Z,25.00
2018-03-14T18:59:16.785Z,15.07
2018-03-14T19:01:44.255Z,14.73
2018-03-14T19:04:11.725Z,18.90
2018-03-14T19:06:39.185Z,17.37
2018-03-14T19:09:06.692Z,19.13
2018-03-14T19:11:34.151Z,16.53
2018-03-14T19:14:01.652Z,17.37
2018-03-14T19:16:29.157Z,16.83
2018-03-14T19:18:56.616Z,21.30
2018-03-14T19:21:24.074Z,17.53
2018-03-14T19:23:51.556Z,15.77
2018-03-14T19:26:19.100Z,22.10
2018-03-14T19:28:46.588Z,15.00
2018-03-14T19:31:14.052Z,13.87
2018-03-14T19:33:45.059Z,18.83
2018-03-14T19:36:12.536Z,14.50
2018-03-14T19:38:40.022Z,15.43
2018-03-14T19:41:07.487Z,19.07
2018-03-14T19:43:35.738Z,16.23
2018-03-14T19:46:06.954Z,19.83
2018-03-14T19:48:34.455Z,19.00
2018-03-14T19:51:02.699Z,18.30
2018-03-14T19:53:30.164Z,15.67
2018-03-14T19:55:57.658Z,19.23
2018-03-14T19:58:25.955Z,18.70
2018-03-14T20:03:31.703Z,18.90
2018-03-14T20:05:59.206Z,21.80
2018-03-14T20:08:26.702Z,20.03
2018-03-14T20:10:54.950Z,23.30
2018-03-14T20:13:22.410Z,24.73
2018-03-14T20:15:50.715Z,18.43
2018-03-14T20:18:18.154Z,17.70
2018-03-14T20:20:45.627Z,16.97
2018-03-14T20:23:13.885Z,18.57
2018-03-14T20:25:41.351Z,19.80
2018-03-14T20:28:08.953Z,19.60
2018-03-14T20:30:36.424Z,19.10
2018-03-14T20:33:03.906Z,19.57
2018-03-14T20:35:31.386Z,23.80
2018-03-14T20:37:59.607Z,21.40
2018-03-14T20:40:27.138Z,21.63
2018-03-14T20:42:54.714Z,20.70
2018-03-14T20:45:22.239Z,20.63
2018-03-14T20:47:50.492Z,22.40
2018-03-14T20:50:17.989Z,19.60
2018-03-14T20:52:45.451Z,21.17
2018-03-14T20:55:12.936Z,20.83
2018-03-14T20:57:40.441Z,17.13
2018-03-14T21:00:08.746Z,22.40
2018-03-14T21:02:36.214Z,22.27
2018-03-14T21:05:04.416Z,20.83
2018-03-14T21:07:31.890Z,22.73
2018-03-14T21:09:59.351Z,24.60
2018-03-14T21:12:27.596Z,17.70
2018-03-14T21:14:55.091Z,23.70
2018-03-14T21:17:23.316Z,21.60
2018-03-14T21:19:50.778Z,20.13
2018-03-14T21:22:18.267Z,17.23
2018-03-14T21:24:45.731Z,20.33
2018-03-14T21:27:13.980Z,24.37
2018-03-14T21:29:41.467Z,22.30
2018-03-14T21:32:09.711Z,21.87
2018-03-14T21:34:37.175Z,20.80
2018-03-14T21:37:04.897Z,17.77
2018-03-14T21:39:32.410Z,20.63
2018-03-14T21:42:00.634Z,21.20
2018-03-14T21:44:28.273Z,24.83
2018-03-14T21:46:55.726Z,15.10
2018-03-14T21:49:23.212Z,17.10
2018-03-14T21:51:50.678Z,17.20
2018-03-14T21:54:18.138Z,15.07
2018-03-14T21:56:45.626Z,13.50
2018-03-14T21:59:13.087Z,14.20
2018-03-14T22:01:40.567Z,20.63
2018-03-14T22:04:08.051Z,18.23
2018-03-14T22:06:35.599Z,17.93
2018-03-14T22:09:03.087Z,16.80
2018-03-14T22:11:30.586Z,17.63
2018-03-14T22:13:58.816Z,18.53
2018-03-14T22:16:26.324Z,18.27
2018-03-14T22:18:54.632Z,23.03
2018-03-14T22:21:22.138Z,19.20
2018-03-14T22:23:50.399Z,21.37
2018-03-14T22:26:17.859Z,20.73
2018-03-14T22:28:45.373Z,21.23
2018-03-14T22:31:12.842Z,21.47
2018-03-14T22:33:40.317Z,18.60
2018-03-14T22:36:07.799Z,17.50
2018-03-14T22:38:36.039Z,21.37
2018-03-14T22:41:03.515Z,21.80
2018-03-14T22:43:31.006Z,23.37
2018-03-14T22:45:58.482Z,21.87
2018-03-14T22:48:25.995Z,26.57
2018-03-14T22:50:53.496Z,22.97
2018-03-14T22:53:20.974Z,21.53
2018-03-14T22:55:48.564Z,25.87
2018-03-14T22:58:16.800Z,27.20
2018-03-14T23:00:44.263Z,27.03
2018-03-14T23:03:11.742Z,22.43
2018-03-14T23:05:39.232Z,29.00
2018-03-14T23:08:07.483Z,24.73
2018-03-14T23:10:34.943Z,28.17
2018-03-14T23:13:03.178Z,25.37
2018-03-14T23:15:30.691Z,24.13
2018-03-14T23:17:58.945Z,28.73
2018-03-14T23:20:26.447Z,26.10
2018-03-14T23:22:53.924Z,28.30
2018-03-14T23:25:22.239Z,31.13
2018-03-14T23:27:50.495Z,23.63
2018-03-14T23:30:17.978Z,27.93
2018-03-14T23:32:45.434Z,23.23
2018-03-14T23:35:13.692Z,27.53
2018-03-14T23:37:41.170Z,25.50
2018-03-14T23:40:09.415Z,32.13
2018-03-14T23:42:36.898Z,27.53
2018-03-14T23:45:05.118Z,24.50
2018-03-14T23:47:32.620Z,27.87
2018-03-14T23:50:00.079Z,24.20
2018-03-14T23:52:27.542Z,27.47
2018-03-14T23:54:55.803Z,35.57
2018-03-14T23:57:23.271Z,22.83
2018-03-14T23:59:51.515Z,27.30
